sensor_id;sensor_type;location;lat;lon;timestamp;pressure;altitude;pressure_sealevel;temperature;humidity
36062;BME280;22123;52.412;20.970;2023-12-04T00:00:35;100949.38;;;-3.51;100.00
36062;BME280;22123;52.412;20.970;2023-12-04T00:03:01;100986.06;;;-3.27;100.00
36062;BME280;22123;52.412;20.970;2023-12-04T00:05:27;101045.88;;;-2.91;100.00
36062;BME280;22123;52.412;20.970;2023-12-04T00:07:53;101029.84;;;-3.05;100.00
36062;BME280;22123;52.412;20.970;2023-12-04T00:10:20;100995.53;;;-3.23;100.00
36062;BME280;22123;52.412;20.970;2023-12-04T00:12:46;100997.22;;;-3.22;100.00
36062;BME280;22123;52.412;20.970;2023-12-04T00:15:11;101032.97;;;-2.97;100.00
36062;BME280;22123;52.412;20.970;2023-12-04T00:17:37;101051.00;;;-2.88;100.00
36062;BME280;22123;52.412;20.970;2023-12-04T00:20:04;101057.03;;;-2.86;100.00
36062;BME280;22123;52.412;20.970;2023-12-04T00:22:30;101046.72;;;-2.90;100.00
36062;BME280;22123;52.412;20.970;2023-12-04T00:24:55;100993.66;;;-3.21;100.00
36062;BME280;22123;52.412;20.970;2023-12-04T00:27:21;100945.47;;;-3.42;100.00
36062;BME280;22123;52.412;20.970;2023-12-04T00:32:50;101046.50;;;-2.86;100.00
36062;BME280;22123;52.412;20.970;2023-12-04T00:35:16;100960.94;;;-3.34;100.00
36062;BME280;22123;52.412;20.970;2023-12-04T00:37:42;101032.88;;;-2.95;100.00
36062;BME280;22123;52.412;20.970;2023-12-04T00:40:08;101014.13;;;-3.07;100.00
36062;BME280;22123;52.412;20.970;2023-12-04T00:42:34;101011.47;;;-3.07;100.00
36062;BME280;22123;52.412;20.970;2023-12-04T00:45:01;101062.75;;;-2.76;100.00
36062;BME280;22123;52.412;20.970;2023-12-04T00:47:27;101064.38;;;-2.73;100.00
36062;BME280;22123;52.412;20.970;2023-12-04T00:52:37;101072.00;;;-2.67;100.00
36062;BME280;22123;52.412;20.970;2023-12-04T00:55:03;100989.91;;;-3.15;100.00
36062;BME280;22123;52.412;20.970;2023-12-04T00:57:29;100963.28;;;-3.28;100.00
36062;BME280;22123;52.412;20.970;2023-12-04T00:59:54;101071.69;;;-2.61;100.00
36062;BME280;22123;52.412;20.970;2023-12-04T01:02:20;100981.06;;;-3.14;100.00
36062;BME280;22123;52.412;20.970;2023-12-04T01:04:46;101068.28;;;-2.63;100.00
36062;BME280;22123;52.412;20.970;2023-12-04T01:07:12;100993.66;;;-3.02;100.00
36062;BME280;22123;52.412;20.970;2023-12-04T01:09:38;101056.03;;;-2.64;100.00
36062;BME280;22123;52.412;20.970;2023-12-04T01:12:04;101057.75;;;-2.63;100.00
36062;BME280;22123;52.412;20.970;2023-12-04T01:14:30;101023.56;;;-2.84;100.00
36062;BME280;22123;52.412;20.970;2023-12-04T01:16:56;100998.22;;;-3.05;100.00
36062;BME280;22123;52.412;20.970;2023-12-04T01:19:22;101005.00;;;-3.00;100.00
36062;BME280;22123;52.412;20.970;2023-12-04T01:21:48;100974.38;;;-3.21;100.00
36062;BME280;22123;52.412;20.970;2023-12-04T01:24:15;101077.84;;;-2.60;100.00
36062;BME280;22123;52.412;20.970;2023-12-04T01:26:41;101028.50;;;-2.95;100.00
36062;BME280;22123;52.412;20.970;2023-12-04T01:29:07;100981.34;;;-3.20;100.00
36062;BME280;22123;52.412;20.970;2023-12-04T01:31:33;101038.66;;;-2.87;100.00
36062;BME280;22123;52.412;20.970;2023-12-04T01:33:59;101029.97;;;-2.89;100.00
36062;BME280;22123;52.412;20.970;2023-12-04T01:36:25;101040.16;;;-2.82;100.00
36062;BME280;22123;52.412;20.970;2023-12-04T01:38:50;101075.19;;;-2.60;100.00
36062;BME280;22123;52.412;20.970;2023-12-04T01:41:16;101093.84;;;-2.65;100.00
36062;BME280;22123;52.412;20.970;2023-12-04T01:43:42;101021.44;;;-3.13;100.00
36062;BME280;22123;52.412;20.970;2023-12-04T01:46:08;101082.31;;;-2.82;100.00
36062;BME280;22123;52.412;20.970;2023-12-04T01:48:35;101110.16;;;-2.57;100.00
36062;BME280;22123;52.412;20.970;2023-12-04T01:51:05;101115.38;;;-2.55;100.00
36062;BME280;22123;52.412;20.970;2023-12-04T01:53:32;101050.19;;;-2.90;100.00
36062;BME280;22123;52.412;20.970;2023-12-04T01:55:58;101023.06;;;-3.11;100.00
36062;BME280;22123;52.412;20.970;2023-12-04T01:58:24;101016.88;;;-3.10;100.00
36062;BME280;22123;52.412;20.970;2023-12-04T02:00:50;101086.88;;;-2.66;100.00
36062;BME280;22123;52.412;20.970;2023-12-04T02:03:16;101115.72;;;-2.44;100.00
36062;BME280;22123;52.412;20.970;2023-12-04T02:05:46;101079.38;;;-2.75;100.00
36062;BME280;22123;52.412;20.970;2023-12-04T02:08:13;101061.53;;;-2.88;100.00
36062;BME280;22123;52.412;20.970;2023-12-04T02:10:39;101065.88;;;-2.87;100.00
36062;BME280;22123;52.412;20.970;2023-12-04T02:13:05;101138.75;;;-2.48;100.00
36062;BME280;22123;52.412;20.970;2023-12-04T02:15:31;101136.97;;;-2.47;100.00
36062;BME280;22123;52.412;20.970;2023-12-04T02:17:57;101112.97;;;-2.60;100.00
36062;BME280;22123;52.412;20.970;2023-12-04T02:20:31;101055.81;;;-2.98;100.00
36062;BME280;22123;52.412;20.970;2023-12-04T02:22:57;101128.63;;;-2.57;100.00
36062;BME280;22123;52.412;20.970;2023-12-04T02:25:23;101045.06;;;-3.12;100.00
36062;BME280;22123;52.412;20.970;2023-12-04T02:27:53;101119.16;;;-2.61;100.00
36062;BME280;22123;52.412;20.970;2023-12-04T02:30:21;101126.91;;;-2.58;100.00
36062;BME280;22123;52.412;20.970;2023-12-04T02:32:48;101072.47;;;-2.97;100.00
36062;BME280;22123;52.412;20.970;2023-12-04T02:35:17;101063.22;;;-3.06;100.00
36062;BME280;22123;52.412;20.970;2023-12-04T02:37:45;101089.66;;;-2.88;100.00
36062;BME280;22123;52.412;20.970;2023-12-04T02:40:12;101073.44;;;-2.98;100.00
36062;BME280;22123;52.412;20.970;2023-12-04T02:42:38;101128.34;;;-2.70;100.00
36062;BME280;22123;52.412;20.970;2023-12-04T02:45:03;101124.72;;;-2.67;100.00
36062;BME280;22123;52.412;20.970;2023-12-04T02:47:29;101080.44;;;-2.99;100.00
36062;BME280;22123;52.412;20.970;2023-12-04T02:49:55;101061.72;;;-3.11;100.00
36062;BME280;22123;52.412;20.970;2023-12-04T02:52:21;101036.94;;;-3.26;100.00
36062;BME280;22123;52.412;20.970;2023-12-04T02:54:47;101120.44;;;-2.70;100.00
36062;BME280;22123;52.412;20.970;2023-12-04T02:57:13;101050.03;;;-3.25;100.00
36062;BME280;22123;52.412;20.970;2023-12-04T02:59:38;101141.72;;;-2.74;100.00
36062;BME280;22123;52.412;20.970;2023-12-04T03:02:04;101055.72;;;-3.34;100.00
36062;BME280;22123;52.412;20.970;2023-12-04T03:04:31;101141.03;;;-2.78;100.00
36062;BME280;22123;52.412;20.970;2023-12-04T03:06:57;101083.88;;;-3.16;100.00
36062;BME280;22123;52.412;20.970;2023-12-04T03:09:23;101148.88;;;-2.76;100.00
36062;BME280;22123;52.412;20.970;2023-12-04T03:11:49;101070.97;;;-3.22;100.00
36062;BME280;22123;52.412;20.970;2023-12-04T03:14:15;101153.34;;;-2.78;100.00
36062;BME280;22123;52.412;20.970;2023-12-04T03:16:41;101159.66;;;-2.83;100.00
36062;BME280;22123;52.412;20.970;2023-12-04T03:19:06;101136.66;;;-2.98;100.00
36062;BME280;22123;52.412;20.970;2023-12-04T03:21:32;101059.81;;;-3.47;100.00
36062;BME280;22123;52.412;20.970;2023-12-04T03:23:58;101158.13;;;-2.87;100.00
36062;BME280;22123;52.412;20.970;2023-12-04T03:26:24;101128.38;;;-3.09;100.00
36062;BME280;22123;52.412;20.970;2023-12-04T03:28:50;101087.25;;;-3.33;100.00
36062;BME280;22123;52.412;20.970;2023-12-04T03:31:16;101163.56;;;-2.91;100.00
36062;BME280;22123;52.412;20.970;2023-12-04T03:33:42;101120.38;;;-3.27;100.00
36062;BME280;22123;52.412;20.970;2023-12-04T03:36:08;101095.34;;;-3.37;100.00
36062;BME280;22123;52.412;20.970;2023-12-04T03:38:34;101158.06;;;-3.06;100.00
36062;BME280;22123;52.412;20.970;2023-12-04T03:41:00;101160.97;;;-3.12;100.00
36062;BME280;22123;52.412;20.970;2023-12-04T03:43:25;101098.91;;;-3.59;100.00
36062;BME280;22123;52.412;20.970;2023-12-04T03:45:51;101104.97;;;-3.57;100.00
36062;BME280;22123;52.412;20.970;2023-12-04T03:48:17;101154.53;;;-3.25;100.00
36062;BME280;22123;52.412;20.970;2023-12-04T03:50:43;101118.72;;;-3.50;100.00
36062;BME280;22123;52.412;20.970;2023-12-04T03:53:09;101119.72;;;-3.53;100.00
36062;BME280;22123;52.412;20.970;2023-12-04T03:55:35;101034.03;;;-4.01;100.00
36062;BME280;22123;52.412;20.970;2023-12-04T03:58:01;101175.47;;;-3.22;100.00
36062;BME280;22123;52.412;20.970;2023-12-04T04:00:26;101161.81;;;-3.32;100.00
36062;BME280;22123;52.412;20.970;2023-12-04T04:02:52;101189.09;;;-3.12;100.00
36062;BME280;22123;52.412;20.970;2023-12-04T04:05:18;101195.22;;;-3.12;100.00
36062;BME280;22123;52.412;20.970;2023-12-04T04:07:44;101173.53;;;-3.19;100.00
36062;BME280;22123;52.412;20.970;2023-12-04T04:10:10;101121.16;;;-3.45;100.00
36062;BME280;22123;52.412;20.970;2023-12-04T04:12:36;101192.31;;;-3.06;100.00
36062;BME280;22123;52.412;20.970;2023-12-04T04:15:02;101124.25;;;-3.56;100.00
36062;BME280;22123;52.412;20.970;2023-12-04T04:17:28;101120.03;;;-3.60;100.00
36062;BME280;22123;52.412;20.970;2023-12-04T04:19:54;101140.56;;;-3.48;100.00
36062;BME280;22123;52.412;20.970;2023-12-04T04:22:21;101133.53;;;-3.47;100.00
36062;BME280;22123;52.412;20.970;2023-12-04T04:24:48;101123.13;;;-3.51;100.00
36062;BME280;22123;52.412;20.970;2023-12-04T04:27:14;101185.59;;;-3.13;100.00
36062;BME280;22123;52.412;20.970;2023-12-04T04:29:41;101195.22;;;-3.12;100.00
36062;BME280;22123;52.412;20.970;2023-12-04T04:32:07;101141.44;;;-3.47;100.00
36062;BME280;22123;52.412;20.970;2023-12-04T04:34:32;101180.25;;;-3.32;100.00
36062;BME280;22123;52.412;20.970;2023-12-04T04:36:58;101124.50;;;-3.62;100.00
36062;BME280;22123;52.412;20.970;2023-12-04T04:39:24;101132.88;;;-3.53;100.00
36062;BME280;22123;52.412;20.970;2023-12-04T04:41:50;101198.31;;;-3.23;100.00
36062;BME280;22123;52.412;20.970;2023-12-04T04:44:16;101197.44;;;-3.23;100.00
36062;BME280;22123;52.412;20.970;2023-12-04T04:46:42;101147.00;;;-3.55;100.00
36062;BME280;22123;52.412;20.970;2023-12-04T04:49:08;101131.69;;;-3.66;100.00
36062;BME280;22123;52.412;20.970;2023-12-04T04:51:34;101197.00;;;-3.33;100.00
36062;BME280;22123;52.412;20.970;2023-12-04T04:54:00;101142.00;;;-3.61;100.00
36062;BME280;22123;52.412;20.970;2023-12-04T04:56:26;101207.00;;;-3.21;100.00
36062;BME280;22123;52.412;20.970;2023-12-04T04:58:52;101160.22;;;-3.57;100.00
36062;BME280;22123;52.412;20.970;2023-12-04T05:01:18;101165.22;;;-3.51;100.00
36062;BME280;22123;52.412;20.970;2023-12-04T05:03:44;101134.53;;;-3.72;100.00
36062;BME280;22123;52.412;20.970;2023-12-04T05:06:10;101210.03;;;-3.30;100.00
36062;BME280;22123;52.412;20.970;2023-12-04T05:08:36;101170.50;;;-3.51;100.00
36062;BME280;22123;52.412;20.970;2023-12-04T05:11:02;101149.00;;;-3.60;100.00
36062;BME280;22123;52.412;20.970;2023-12-04T05:13:28;101138.97;;;-3.73;100.00
36062;BME280;22123;52.412;20.970;2023-12-04T05:15:54;101154.25;;;-3.60;100.00
36062;BME280;22123;52.412;20.970;2023-12-04T05:18:19;101164.25;;;-3.48;100.00
36062;BME280;22123;52.412;20.970;2023-12-04T05:20:45;101150.25;;;-3.69;100.00
36062;BME280;22123;52.412;20.970;2023-12-04T05:23:11;101222.19;;;-3.27;100.00
36062;BME280;22123;52.412;20.970;2023-12-04T05:25:37;101138.06;;;-3.72;100.00
36062;BME280;22123;52.412;20.970;2023-12-04T05:28:04;101144.50;;;-3.79;100.00
36062;BME280;22123;52.412;20.970;2023-12-04T05:30:30;101189.06;;;-3.54;100.00
36062;BME280;22123;52.412;20.970;2023-12-04T05:32:56;101154.81;;;-3.74;100.00
36062;BME280;22123;52.412;20.970;2023-12-04T05:35:22;101202.00;;;-3.47;100.00
36062;BME280;22123;52.412;20.970;2023-12-04T05:37:48;101090.69;;;-4.14;100.00
36062;BME280;22123;52.412;20.970;2023-12-04T05:40:14;101188.94;;;-3.51;100.00
36062;BME280;22123;52.412;20.970;2023-12-04T05:42:40;101162.53;;;-3.70;100.00
36062;BME280;22123;52.412;20.970;2023-12-04T05:45:06;101215.81;;;-3.42;100.00
36062;BME280;22123;52.412;20.970;2023-12-04T05:47:32;101165.41;;;-3.76;100.00
36062;BME280;22123;52.412;20.970;2023-12-04T05:49:58;101179.91;;;-3.65;100.00
36062;BME280;22123;52.412;20.970;2023-12-04T05:52:23;101236.50;;;-3.33;100.00
36062;BME280;22123;52.412;20.970;2023-12-04T05:54:49;101228.53;;;-3.32;100.00
36062;BME280;22123;52.412;20.970;2023-12-04T05:57:15;101183.34;;;-3.63;100.00
36062;BME280;22123;52.412;20.970;2023-12-04T05:59:41;101240.19;;;-3.37;100.00
36062;BME280;22123;52.412;20.970;2023-12-04T06:02:07;101158.13;;;-3.91;100.00
36062;BME280;22123;52.412;20.970;2023-12-04T06:04:33;101205.13;;;-3.60;100.00
36062;BME280;22123;52.412;20.970;2023-12-04T06:06:59;101188.13;;;-3.73;100.00
36062;BME280;22123;52.412;20.970;2023-12-04T06:09:25;101249.25;;;-3.44;100.00
36062;BME280;22123;52.412;20.970;2023-12-04T06:11:50;101210.63;;;-3.66;100.00
36062;BME280;22123;52.412;20.970;2023-12-04T06:14:16;101207.31;;;-3.71;100.00
36062;BME280;22123;52.412;20.970;2023-12-04T06:16:42;101239.00;;;-3.52;100.00
36062;BME280;22123;52.412;20.970;2023-12-04T06:19:08;101145.75;;;-4.10;100.00
36062;BME280;22123;52.412;20.970;2023-12-04T06:21:34;101238.28;;;-3.56;100.00
36062;BME280;22123;52.412;20.970;2023-12-04T06:24:00;101240.84;;;-3.54;100.00
36062;BME280;22123;52.412;20.970;2023-12-04T06:26:26;101225.38;;;-3.62;100.00
36062;BME280;22123;52.412;20.970;2023-12-04T06:28:52;101228.81;;;-3.60;100.00
36062;BME280;22123;52.412;20.970;2023-12-04T06:31:19;101181.59;;;-3.85;100.00
36062;BME280;22123;52.412;20.970;2023-12-04T06:33:45;101157.84;;;-4.06;100.00
36062;BME280;22123;52.412;20.970;2023-12-04T06:36:12;101232.03;;;-3.75;100.00
36062;BME280;22123;52.412;20.970;2023-12-04T06:38:39;101251.59;;;-3.59;100.00
36062;BME280;22123;52.412;20.970;2023-12-04T06:41:07;101248.13;;;-3.61;100.00
36062;BME280;22123;52.412;20.970;2023-12-04T06:43:33;101256.78;;;-3.57;100.00
36062;BME280;22123;52.412;20.970;2023-12-04T06:45:59;101250.47;;;-3.53;100.00
36062;BME280;22123;52.412;20.970;2023-12-04T06:48:25;101156.50;;;-4.16;100.00
36062;BME280;22123;52.412;20.970;2023-12-04T06:50:51;101231.88;;;-3.71;100.00
36062;BME280;22123;52.412;20.970;2023-12-04T06:53:17;101260.88;;;-3.50;100.00
36062;BME280;22123;52.412;20.970;2023-12-04T06:55:43;101226.56;;;-3.69;100.00
36062;BME280;22123;52.412;20.970;2023-12-04T06:58:09;101213.03;;;-3.82;100.00
36062;BME280;22123;52.412;20.970;2023-12-04T07:00:35;101252.91;;;-3.48;100.00
36062;BME280;22123;52.412;20.970;2023-12-04T07:03:01;101269.44;;;-3.45;100.00
36062;BME280;22123;52.412;20.970;2023-12-04T07:05:26;101240.09;;;-3.56;100.00
36062;BME280;22123;52.412;20.970;2023-12-04T07:07:52;101255.50;;;-3.47;100.00
36062;BME280;22123;52.412;20.970;2023-12-04T07:10:18;101253.84;;;-3.50;100.00
36062;BME280;22123;52.412;20.970;2023-12-04T07:12:44;101237.47;;;-3.58;100.00
36062;BME280;22123;52.412;20.970;2023-12-04T07:15:11;101231.56;;;-3.63;100.00
36062;BME280;22123;52.412;20.970;2023-12-04T07:17:37;101183.59;;;-3.92;100.00
36062;BME280;22123;52.412;20.970;2023-12-04T07:20:04;101191.50;;;-3.92;100.00
36062;BME280;22123;52.412;20.970;2023-12-04T07:22:30;101212.16;;;-3.82;100.00
36062;BME280;22123;52.412;20.970;2023-12-04T07:24:56;101192.47;;;-3.94;100.00
36062;BME280;22123;52.412;20.970;2023-12-04T07:27:21;101170.88;;;-4.03;100.00
36062;BME280;22123;52.412;20.970;2023-12-04T07:29:47;101224.78;;;-3.69;100.00
36062;BME280;22123;52.412;20.970;2023-12-04T07:32:13;101214.31;;;-3.70;100.00
36062;BME280;22123;52.412;20.970;2023-12-04T07:34:39;101269.22;;;-3.39;100.00
36062;BME280;22123;52.412;20.970;2023-12-04T07:37:05;101184.22;;;-3.85;100.00
36062;BME280;22123;52.412;20.970;2023-12-04T07:39:31;101210.84;;;-3.71;100.00
36062;BME280;22123;52.412;20.970;2023-12-04T07:41:57;101237.81;;;-3.65;100.00
36062;BME280;22123;52.412;20.970;2023-12-04T07:44:23;101248.13;;;-3.61;100.00
36062;BME280;22123;52.412;20.970;2023-12-04T07:46:48;101227.66;;;-3.75;100.00
36062;BME280;22123;52.412;20.970;2023-12-04T07:49:14;101256.84;;;-3.59;100.00
36062;BME280;22123;52.412;20.970;2023-12-04T07:51:40;101263.94;;;-3.61;100.00
36062;BME280;22123;52.412;20.970;2023-12-04T07:54:06;101190.28;;;-4.05;100.00
36062;BME280;22123;52.412;20.970;2023-12-04T07:56:32;101244.97;;;-3.69;100.00
36062;BME280;22123;52.412;20.970;2023-12-04T07:58:58;101256.16;;;-3.64;100.00
36062;BME280;22123;52.412;20.970;2023-12-04T08:01:24;101225.31;;;-3.82;100.00
36062;BME280;22123;52.412;20.970;2023-12-04T08:03:52;101279.97;;;-3.45;100.00
36062;BME280;22123;52.412;20.970;2023-12-04T08:06:18;101240.44;;;-3.65;100.00
36062;BME280;22123;52.412;20.970;2023-12-04T08:08:44;101232.53;;;-3.65;100.00
36062;BME280;22123;52.412;20.970;2023-12-04T08:11:10;101254.81;;;-3.52;100.00
36062;BME280;22123;52.412;20.970;2023-12-04T08:13:39;101216.81;;;-3.67;100.00
36062;BME280;22123;52.412;20.970;2023-12-04T08:16:13;101229.78;;;-3.62;100.00
36062;BME280;22123;52.412;20.970;2023-12-04T08:18:39;101249.53;;;-3.52;100.00
36062;BME280;22123;52.412;20.970;2023-12-04T08:21:05;101315.06;;;-3.22;100.00
36062;BME280;22123;52.412;20.970;2023-12-04T08:23:31;101317.88;;;-3.27;100.00
36062;BME280;22123;52.412;20.970;2023-12-04T08:25:57;101314.31;;;-3.26;100.00
36062;BME280;22123;52.412;20.970;2023-12-04T08:28:23;101277.16;;;-3.40;100.00
36062;BME280;22123;52.412;20.970;2023-12-04T08:30:49;101282.19;;;-3.34;100.00
36062;BME280;22123;52.412;20.970;2023-12-04T08:33:14;101275.44;;;-3.41;100.00
36062;BME280;22123;52.412;20.970;2023-12-04T08:35:40;101291.53;;;-3.27;100.00
36062;BME280;22123;52.412;20.970;2023-12-04T08:38:06;101271.44;;;-3.29;100.00
36062;BME280;22123;52.412;20.970;2023-12-04T08:40:32;101317.72;;;-3.02;100.00
36062;BME280;22123;52.412;20.970;2023-12-04T08:42:58;101323.91;;;-3.03;100.00
36062;BME280;22123;52.412;20.970;2023-12-04T08:45:24;101286.06;;;-3.22;100.00
36062;BME280;22123;52.412;20.970;2023-12-04T08:47:50;101249.00;;;-3.38;100.00
36062;BME280;22123;52.412;20.970;2023-12-04T08:50:16;101239.50;;;-3.42;100.00
36062;BME280;22123;52.412;20.970;2023-12-04T08:52:42;101226.72;;;-3.52;100.00
36062;BME280;22123;52.412;20.970;2023-12-04T08:55:09;101280.41;;;-3.13;100.00
36062;BME280;22123;52.412;20.970;2023-12-04T08:57:35;101317.06;;;-2.86;100.00
36062;BME280;22123;52.412;20.970;2023-12-04T09:00:01;101340.09;;;-2.69;100.00
36062;BME280;22123;52.412;20.970;2023-12-04T09:02:27;101307.97;;;-3.00;100.00
36062;BME280;22123;52.412;20.970;2023-12-04T09:04:53;101276.66;;;-3.28;100.00
36062;BME280;22123;52.412;20.970;2023-12-04T09:07:19;101338.34;;;-2.91;100.00
36062;BME280;22123;52.412;20.970;2023-12-04T09:09:44;101309.78;;;-3.22;100.00
36062;BME280;22123;52.412;20.970;2023-12-04T09:12:10;101233.22;;;-3.60;100.00
36062;BME280;22123;52.412;20.970;2023-12-04T09:14:36;101270.91;;;-3.38;100.00
36062;BME280;22123;52.412;20.970;2023-12-04T09:17:02;101277.63;;;-3.30;100.00
36062;BME280;22123;52.412;20.970;2023-12-04T09:19:28;101317.00;;;-3.05;100.00
36062;BME280;22123;52.412;20.970;2023-12-04T09:21:54;101301.41;;;-3.11;100.00
36062;BME280;22123;52.412;20.970;2023-12-04T09:24:20;101266.06;;;-3.26;100.00
36062;BME280;22123;52.412;20.970;2023-12-04T09:26:46;101303.81;;;-3.05;100.00
36062;BME280;22123;52.412;20.970;2023-12-04T09:29:12;101336.84;;;-2.76;100.00
36062;BME280;22123;52.412;20.970;2023-12-04T09:31:38;101340.88;;;-2.67;100.00
36062;BME280;22123;52.412;20.970;2023-12-04T09:34:05;101312.25;;;-2.97;100.00
36062;BME280;22123;52.412;20.970;2023-12-04T09:36:31;101333.44;;;-2.78;100.00
36062;BME280;22123;52.412;20.970;2023-12-04T09:38:56;101341.97;;;-2.73;100.00
36062;BME280;22123;52.412;20.970;2023-12-04T09:41:22;101318.59;;;-2.81;100.00
36062;BME280;22123;52.412;20.970;2023-12-04T09:43:48;101324.34;;;-2.71;100.00
36062;BME280;22123;52.412;20.970;2023-12-04T09:46:15;101279.06;;;-3.01;100.00
36062;BME280;22123;52.412;20.970;2023-12-04T09:48:41;101330.25;;;-2.66;100.00
36062;BME280;22123;52.412;20.970;2023-12-04T09:51:09;101332.97;;;-2.67;100.00
36062;BME280;22123;52.412;20.970;2023-12-04T09:53:35;101326.03;;;-2.70;100.00
36062;BME280;22123;52.412;20.970;2023-12-04T09:56:02;101320.69;;;-2.68;100.00
36062;BME280;22123;52.412;20.970;2023-12-04T09:58:28;101261.75;;;-3.07;100.00
36062;BME280;22123;52.412;20.970;2023-12-04T10:00:55;101325.06;;;-2.67;100.00
36062;BME280;22123;52.412;20.970;2023-12-04T10:03:22;101306.34;;;-2.82;100.00
36062;BME280;22123;52.412;20.970;2023-12-04T10:05:48;101240.97;;;-3.35;100.00
36062;BME280;22123;52.412;20.970;2023-12-04T10:08:14;101322.16;;;-2.82;100.00
36062;BME280;22123;52.412;20.970;2023-12-04T10:10:40;101270.81;;;-3.14;100.00
36062;BME280;22123;52.412;20.970;2023-12-04T10:13:06;101297.19;;;-2.93;100.00
36062;BME280;22123;52.412;20.970;2023-12-04T10:15:32;101311.94;;;-2.89;100.00
36062;BME280;22123;52.412;20.970;2023-12-04T10:17:58;101269.59;;;-3.27;100.00
36062;BME280;22123;52.412;20.970;2023-12-04T10:20:23;101231.59;;;-3.42;100.00
36062;BME280;22123;52.412;20.970;2023-12-04T10:22:57;101326.44;;;-2.79;100.00
36062;BME280;22123;52.412;20.970;2023-12-04T10:25:25;101283.59;;;-3.05;100.00
36062;BME280;22123;52.412;20.970;2023-12-04T10:27:52;101316.88;;;-2.82;100.00
36062;BME280;22123;52.412;20.970;2023-12-04T10:30:28;101321.16;;;-2.79;100.00
36062;BME280;22123;52.412;20.970;2023-12-04T10:32:55;101323.47;;;-2.71;100.00
36062;BME280;22123;52.412;20.970;2023-12-04T10:35:22;101276.81;;;-3.10;100.00
36062;BME280;22123;52.412;20.970;2023-12-04T10:37:49;101284.19;;;-2.98;100.00
36062;BME280;22123;52.412;20.970;2023-12-04T10:40:22;101254.28;;;-3.18;100.00
36062;BME280;22123;52.412;20.970;2023-12-04T10:42:48;101269.44;;;-3.02;100.00
36062;BME280;22123;52.412;20.970;2023-12-04T10:45:14;101316.03;;;-2.82;100.00
36062;BME280;22123;52.412;20.970;2023-12-04T10:47:40;101318.72;;;-2.84;100.00
36062;BME280;22123;52.412;20.970;2023-12-04T10:50:06;101315.16;;;-2.83;100.00
36062;BME280;22123;52.412;20.970;2023-12-04T10:52:33;101285.78;;;-2.94;100.00
36062;BME280;22123;52.412;20.970;2023-12-04T10:55:00;101303.69;;;-2.82;100.00
36062;BME280;22123;52.412;20.970;2023-12-04T10:57:27;101317.91;;;-2.65;100.00
36062;BME280;22123;52.412;20.970;2023-12-04T10:59:57;101289.94;;;-2.68;100.00
36062;BME280;22123;52.412;20.970;2023-12-04T11:02:26;101227.63;;;-3.10;100.00
36062;BME280;22123;52.412;20.970;2023-12-04T11:04:55;101317.53;;;-2.56;100.00
36062;BME280;22123;52.412;20.970;2023-12-04T11:07:24;101288.50;;;-2.75;100.00
36062;BME280;22123;52.412;20.970;2023-12-04T11:09:51;101292.38;;;-2.63;100.00
36062;BME280;22123;52.412;20.970;2023-12-04T11:12:18;101317.88;;;-2.43;100.00
36062;BME280;22123;52.412;20.970;2023-12-04T11:14:53;101225.44;;;-3.00;100.00
36062;BME280;22123;52.412;20.970;2023-12-04T11:17:22;101313.75;;;-2.30;100.00
36062;BME280;22123;52.412;20.970;2023-12-04T11:20:06;101255.31;;;-2.60;100.00
36062;BME280;22123;52.412;20.970;2023-12-04T11:22:34;101232.19;;;-2.74;100.00
36062;BME280;22123;52.412;20.970;2023-12-04T11:25:01;101313.69;;;-2.28;100.00
36062;BME280;22123;52.412;20.970;2023-12-04T11:27:27;101277.78;;;-2.51;100.00
36062;BME280;22123;52.412;20.970;2023-12-04T11:29:53;101238.28;;;-2.72;100.00
36062;BME280;22123;52.412;20.970;2023-12-04T11:32:19;101279.66;;;-2.34;100.00
36062;BME280;22123;52.412;20.970;2023-12-04T11:34:59;101211.84;;;-2.70;100.00
36062;BME280;22123;52.412;20.970;2023-12-04T11:37:26;101264.00;;;-2.37;100.00
36062;BME280;22123;52.412;20.970;2023-12-04T11:39:53;101311.66;;;-2.02;100.00
36062;BME280;22123;52.412;20.970;2023-12-04T11:42:22;101306.50;;;-2.05;100.00
36062;BME280;22123;52.412;20.970;2023-12-04T11:44:49;101230.31;;;-2.51;100.00
36062;BME280;22123;52.412;20.970;2023-12-04T11:47:15;101234.53;;;-2.47;100.00
36062;BME280;22123;52.412;20.970;2023-12-04T11:49:41;101290.69;;;-2.05;100.00
36062;BME280;22123;52.412;20.970;2023-12-04T11:52:07;101278.56;;;-2.10;100.00
36062;BME280;22123;52.412;20.970;2023-12-04T11:54:56;101297.25;;;-1.95;100.00
36062;BME280;22123;52.412;20.970;2023-12-04T11:57:23;101232.81;;;-2.29;100.00
36062;BME280;22123;52.412;20.970;2023-12-04T11:59:49;101290.09;;;-1.93;100.00
36062;BME280;22123;52.412;20.970;2023-12-04T12:02:15;101268.78;;;-2.07;100.00
36062;BME280;22123;52.412;20.970;2023-12-04T12:04:41;101224.72;;;-2.24;100.00
36062;BME280;22123;52.412;20.970;2023-12-04T12:07:07;101278.47;;;-1.89;100.00
36062;BME280;22123;52.412;20.970;2023-12-04T12:09:33;101206.59;;;-2.32;100.00
36062;BME280;22123;52.412;20.970;2023-12-04T12:12:03;101215.94;;;-2.25;100.00
36062;BME280;22123;52.412;20.970;2023-12-04T12:14:29;101239.53;;;-2.03;100.00
36062;BME280;22123;52.412;20.970;2023-12-04T12:16:58;101229.94;;;-2.23;100.00
36062;BME280;22123;52.412;20.970;2023-12-04T12:19:25;101149.66;;;-2.55;100.00
36062;BME280;22123;52.412;20.970;2023-12-04T12:21:50;101275.75;;;-1.68;100.00
36062;BME280;22123;52.412;20.970;2023-12-04T12:24:17;101277.22;;;-1.63;100.00
36062;BME280;22123;52.412;20.970;2023-12-04T12:26:43;101258.84;;;-1.83;100.00
36062;BME280;22123;52.412;20.970;2023-12-04T12:29:09;101263.38;;;-1.85;100.00
36062;BME280;22123;52.412;20.970;2023-12-04T12:31:35;101263.09;;;-1.98;100.00